createdAt,value
2018-12-17T00:04:21.189Z,25.80
2018-12-17T00:09:26.032Z,24.60
2018-12-17T00:14:29.042Z,26.43
2018-12-17T00:19:31.711Z,26.37
2018-12-17T00:24:34.595Z,25.03
2018-12-17T00:29:37.313Z,25.63
2018-12-17T00:34:40.292Z,27.13
2018-12-17T00:39:43.005Z,25.43
2018-12-17T00:44:45.777Z,25.63
2018-12-17T00:49:48.673Z,26.03
2018-12-17T00:54:51.455Z,26.03
2018-12-17T00:59:54.158Z,26.30
2018-12-17T01:04:56.953Z,25.97
2018-12-17T01:09:59.946Z,27.00
2018-12-17T01:15:04.172Z,26.67
2018-12-17T01:20:07.816Z,24.93
2018-12-17T01:25:10.766Z,25.77
2018-12-17T01:30:13.817Z,26.17
2018-12-17T01:35:16.632Z,25.83
2018-12-17T01:40:19.574Z,27.17
2018-12-17T01:45:22.597Z,25.90
2018-12-17T01:50:25.435Z,27.63
2018-12-17T01:55:28.213Z,25.80
2018-12-17T02:00:31.047Z,26.00
2018-12-17T02:05:33.901Z,26.03
2018-12-17T02:10:36.800Z,24.93
2018-12-17T02:15:40.373Z,26.50
2018-12-17T02:20:43.040Z,26.87
2018-12-17T02:25:45.962Z,26.67
2018-12-17T02:30:48.935Z,25.67
2018-12-17T02:35:51.669Z,25.40
2018-12-17T02:40:54.292Z,27.27
2018-12-17T02:45:57.131Z,26.63
2018-12-17T02:50:59.997Z,24.90
2018-12-17T02:56:03.070Z,26.23
2018-12-17T03:01:06.858Z,25.63
2018-12-17T03:06:11.032Z,26.10
2018-12-17T03:11:13.918Z,26.10
2018-12-17T03:16:16.616Z,25.50
2018-12-17T03:21:19.456Z,25.73
2018-12-17T03:26:22.591Z,25.83
2018-12-17T03:31:25.697Z,26.40
2018-12-17T03:36:28.664Z,25.63
2018-12-17T03:41:31.591Z,26.30
2018-12-17T03:46:34.640Z,26.00
2018-12-17T03:51:37.425Z,27.03
2018-12-17T03:56:40.566Z,25.80
2018-12-17T04:01:43.398Z,26.77
2018-12-17T04:06:46.285Z,26.00
2018-12-17T04:11:48.977Z,25.70
2018-12-17T04:16:51.764Z,25.20
2018-12-17T04:21:54.521Z,26.23
2018-12-17T04:26:58.213Z,25.67
2018-12-17T04:32:01.084Z,26.07
2018-12-17T04:37:04.322Z,24.53
2018-12-17T04:42:08.077Z,26.27
2018-12-17T04:47:10.973Z,26.53
2018-12-17T04:52:13.733Z,27.10
2018-12-17T04:57:16.606Z,25.97
2018-12-17T05:02:19.396Z,25.80
2018-12-17T05:07:22.540Z,26.37
2018-12-17T05:12:25.514Z,26.03
2018-12-17T05:17:28.277Z,27.73
2018-12-17T05:22:31.081Z,27.73
2018-12-17T05:27:33.952Z,25.73
2018-12-17T05:32:36.801Z,27.77
2018-12-17T05:37:39.571Z,27.30
2018-12-17T05:42:42.506Z,28.47
2018-12-17T05:47:45.336Z,25.63
2018-12-17T05:52:48.151Z,26.87
2018-12-17T05:57:50.759Z,27.07
2018-12-17T06:02:53.589Z,26.03
2018-12-17T06:07:56.329Z,27.33
2018-12-17T06:12:59.068Z,26.60
2018-12-17T06:18:02.054Z,26.43
2018-12-17T06:23:05.010Z,25.47
2018-12-17T06:28:08.106Z,27.20
2018-12-17T06:33:15.637Z,26.30
2018-12-17T06:38:16.888Z,26.37
2018-12-17T06:43:20.063Z,26.00
2018-12-17T06:48:22.963Z,27.00
2018-12-17T06:53:25.805Z,28.07
2018-12-17T06:58:29.397Z,27.43
2018-12-17T07:03:32.251Z,29.40
2018-12-17T07:08:35.078Z,29.03
2018-12-17T07:13:37.752Z,26.93
2018-12-17T07:18:40.465Z,27.00
2018-12-17T07:23:43.240Z,27.33
2018-12-17T07:28:45.984Z,26.17
2018-12-17T07:33:48.879Z,26.50
2018-12-17T07:38:52.020Z,27.00
2018-12-17T07:43:55.145Z,27.10
2018-12-17T07:48:58.133Z,26.53
2018-12-17T07:54:01.014Z,27.13
2018-12-17T07:59:03.893Z,26.50
2018-12-17T08:04:06.741Z,25.67
2018-12-17T08:09:09.609Z,25.67
2018-12-17T08:14:12.509Z,25.27
2018-12-17T08:19:15.216Z,24.37
2018-12-17T08:24:18.119Z,26.37
2018-12-17T08:29:20.913Z,25.87
2018-12-17T08:34:23.819Z,25.50
2018-12-17T08:39:26.650Z,24.63
2018-12-17T08:44:29.545Z,24.93
2018-12-17T08:49:32.597Z,25.80
2018-12-17T08:54:35.350Z,26.60
2018-12-17T08:59:38.002Z,25.40
2018-12-17T09:04:41.098Z,25.57
2018-12-17T09:09:44.071Z,24.80
2018-12-17T09:14:46.935Z,24.83
2018-12-17T09:19:49.726Z,25.70
2018-12-17T09:24:52.742Z,24.00
2018-12-17T09:29:55.648Z,24.83
2018-12-17T09:34:58.425Z,24.07
2018-12-17T09:40:01.554Z,25.00
2018-12-17T09:45:07.220Z,25.80
2018-12-17T09:50:10.079Z,25.13
2018-12-17T09:55:12.936Z,26.13
2018-12-17T10:00:15.829Z,25.93
2018-12-17T10:05:18.781Z,26.47
2018-12-17T10:10:21.836Z,25.53
2018-12-17T10:15:25.003Z,27.50
2018-12-17T10:20:27.881Z,27.17
2018-12-17T10:25:30.773Z,27.43
2018-12-17T10:30:33.575Z,27.07
2018-12-17T10:35:36.527Z,26.50
2018-12-17T10:40:39.573Z,26.83
2018-12-17T10:45:42.574Z,26.70
2018-12-17T10:50:45.690Z,28.00
2018-12-17T10:55:48.392Z,27.43
2018-12-17T11:00:57.127Z,27.60
2018-12-17T11:06:04.170Z,27.83
2018-12-17T11:11:07.165Z,28.83
2018-12-17T11:16:10.290Z,29.50
2018-12-17T11:21:13.004Z,27.07
2018-12-17T11:26:15.667Z,27.57
2018-12-17T11:31:18.523Z,27.63
2018-12-17T11:36:21.545Z,27.23
2018-12-17T11:41:24.308Z,27.00
2018-12-17T11:46:27.226Z,26.67
2018-12-17T11:51:30.194Z,26.33
2018-12-17T12:02:14.570Z,26.10
2018-12-17T12:07:17.402Z,24.33
2018-12-17T12:12:20.361Z,24.17
2018-12-17T12:17:23.341Z,23.77
2018-12-17T12:22:26.049Z,22.43
2018-12-17T12:27:29.455Z,23.83
2018-12-17T12:32:32.415Z,22.90
2018-12-17T12:37:35.532Z,24.40
2018-12-17T12:42:38.465Z,24.30
2018-12-17T12:47:41.401Z,24.37
2018-12-17T12:52:44.532Z,21.93
2018-12-17T12:57:47.434Z,20.50
2018-12-17T13:02:50.310Z,22.70
2018-12-17T13:07:53.106Z,23.50
2018-12-17T13:12:55.937Z,26.23
2018-12-17T13:17:59.538Z,24.83
2018-12-17T13:23:02.395Z,24.87
2018-12-17T13:28:05.404Z,24.47
2018-12-17T13:33:08.268Z,25.73
2018-12-17T13:38:11.316Z,27.73
2018-12-17T13:43:14.197Z,27.30
2018-12-17T13:53:31.708Z,29.80
2018-12-17T13:58:35.352Z,27.90
2018-12-17T14:03:38.225Z,28.90
2018-12-17T14:08:41.182Z,27.50
2018-12-17T14:13:44.194Z,29.30
2018-12-17T14:18:52.990Z,29.93
2018-12-17T14:23:55.847Z,28.93
2018-12-17T14:28:58.586Z,27.97
2018-12-17T14:34:01.411Z,28.00
2018-12-17T14:39:06.956Z,29.40
2018-12-17T14:44:17.566Z,26.80
2018-12-17T14:49:20.396Z,27.30
2018-12-17T14:54:23.362Z,27.57
2018-12-17T14:59:26.240Z,27.57
2018-12-17T15:04:29.302Z,26.90
2018-12-17T15:09:31.970Z,27.50
2018-12-17T15:14:34.584Z,28.37
2018-12-17T15:19:37.538Z,28.47
2018-12-17T15:24:40.699Z,29.33
2018-12-17T15:29:43.557Z,30.10
2018-12-17T15:34:46.251Z,29.63
2018-12-17T15:39:49.131Z,30.00
2018-12-17T15:44:55.482Z,30.33
2018-12-17T15:49:58.058Z,28.83
2018-12-17T15:55:02.488Z,27.83
2018-12-17T16:00:10.162Z,27.90
2018-12-17T16:05:13.025Z,29.03
2018-12-17T16:10:15.788Z,28.20
2018-12-17T16:15:18.649Z,28.30
2018-12-17T16:20:21.661Z,26.83
2018-12-17T16:25:24.846Z,24.67
2018-12-17T16:30:27.678Z,23.47
2018-12-17T16:35:30.517Z,23.90
2018-12-17T16:40:33.860Z,22.90
2018-12-17T16:45:37.029Z,22.67
2018-12-17T16:50:40.290Z,23.90
2018-12-17T16:55:44.505Z,25.13
2018-12-17T17:00:47.417Z,21.70
2018-12-17T17:05:50.393Z,24.17
2018-12-17T17:10:53.472Z,23.27
2018-12-17T17:15:56.661Z,23.30
2018-12-17T17:20:59.494Z,23.23
2018-12-17T17:26:02.589Z,23.50
2018-12-17T17:31:05.560Z,24.17
2018-12-17T17:36:08.477Z,23.50
2018-12-17T17:41:11.405Z,22.17
2018-12-17T17:46:14.154Z,22.87
2018-12-17T17:51:17.288Z,23.20
2018-12-17T17:56:20.201Z,22.17
2018-12-17T18:01:23.073Z,21.13
2018-12-17T18:06:25.923Z,24.27
2018-12-17T18:11:28.824Z,21.00
2018-12-17T18:16:31.870Z,21.07
2018-12-17T18:21:34.775Z,21.40
2018-12-17T18:26:37.619Z,21.97
2018-12-17T18:31:40.496Z,22.83
2018-12-17T18:36:43.682Z,21.87
2018-12-17T18:41:46.589Z,23.70
2018-12-17T18:46:52.513Z,23.50
2018-12-17T18:51:55.512Z,24.50
2018-12-17T18:57:01.470Z,24.80
2018-12-17T19:02:04.543Z,24.03
2018-12-17T19:07:07.493Z,26.63
2018-12-17T19:12:10.401Z,29.90
2018-12-17T19:17:13.516Z,29.57
2018-12-17T19:22:16.381Z,29.83
2018-12-17T19:27:19.525Z,29.73
2018-12-17T19:32:22.478Z,29.30
2018-12-17T19:37:25.410Z,29.57
2018-12-17T19:42:28.311Z,30.00
2018-12-17T19:47:31.197Z,30.70
2018-12-17T19:52:34.152Z,29.83
2018-12-17T19:57:37.116Z,30.23
2018-12-17T20:02:46.851Z,37.10
2018-12-17T20:07:44.938Z,31.67
2018-12-17T20:12:47.671Z,31.00
2018-12-17T20:17:50.518Z,28.90
2018-12-17T20:22:53.249Z,28.37
2018-12-17T20:27:55.914Z,27.97
2018-12-17T20:38:11.318Z,27.97
2018-12-17T20:43:14.089Z,27.93
2018-12-17T20:48:17.020Z,36.63
2018-12-17T20:53:20.209Z,29.87
2018-12-17T20:58:23.121Z,30.53
2018-12-17T21:03:26.014Z,29.67
2018-12-17T21:08:28.654Z,30.13
2018-12-17T21:13:31.545Z,29.33
2018-12-17T21:18:34.386Z,30.47
2018-12-17T21:23:37.580Z,29.70
2018-12-17T21:28:40.310Z,30.17
2018-12-17T21:33:43.023Z,30.43
2018-12-17T21:38:45.725Z,28.27
2018-12-17T21:43:48.719Z,28.40
2018-12-17T21:48:51.669Z,28.73
2018-12-17T21:53:54.438Z,27.17
2018-12-17T21:58:57.550Z,28.57
2018-12-17T22:04:00.376Z,27.37
2018-12-17T22:09:05.828Z,28.07
2018-12-17T22:14:10.676Z,27.70
2018-12-17T22:19:14.837Z,27.03
2018-12-17T22:24:17.846Z,28.00
2018-12-17T22:29:21.442Z,26.77
2018-12-17T22:34:25.334Z,27.93
2018-12-17T22:39:28.126Z,27.67
2018-12-17T22:44:31.183Z,26.53
2018-12-17T22:49:34.238Z,25.70
2018-12-17T22:54:37.094Z,26.87
2018-12-17T22:59:39.905Z,26.40
2018-12-17T23:04:42.765Z,26.43
2018-12-17T23:10:03.168Z,25.20
2018-12-17T23:15:23.541Z,24.97
2018-12-17T23:20:26.471Z,24.97
2018-12-17T23:25:31.503Z,26.47
2018-12-17T23:30:35.863Z,27.37
2018-12-17T23:35:38.687Z,24.87
2018-12-17T23:40:41.298Z,26.23
2018-12-17T23:45:51.171Z,26.03
2018-12-17T23:50:54.274Z,25.63
2018-12-17T23:55:57.127Z,25.13
